Time;durP1;ratioP1;P1;durP2;ratioP2;P2;SDS_P1;SDS_P2;PMS_P1;PMS_P2;Temp;Humidity;BMP_temperature;BMP_pressure;BME280_temperature;BME280_humidity;BME280_pressure;Samples;Min_cycle;Max_cycle;Signal;HPM_P1;HPM_P2
2022/05/01 00:01:01;;;;;;;43.30;30.65;;;9.30;99.90;;;;;;5051421;28;20029;-70
2022/05/01 00:03:36;;;;;;;43.63;30.25;;;9.30;99.90;;;;;;5052132;28;20040;-70
2022/05/01 00:06:04;;;;;;;40.58;28.90;;;9.20;99.90;;;;;;5052046;28;20024;-70
2022/05/01 00:08:30;;;;;;;45.92;30.45;;;9.20;99.90;;;;;;5052153;28;20140;-70
2022/05/01 00:10:56;;;;;;;48.28;31.88;;;9.20;99.90;;;;;;5051336;28;20094;-71
2022/05/01 00:13:24;;;;;;;46.17;30.38;;;9.30;99.90;;;;;;5051584;28;20037;-72
2022/05/01 00:15:50;;;;;;;40.70;29.55;;;9.30;99.90;;;;;;5051419;28;20116;-71
2022/05/01 00:18:17;;;;;;;43.40;30.70;;;9.20;99.90;;;;;;5052229;28;20090;-71
2022/05/01 00:20:43;;;;;;;47.35;31.35;;;9.20;99.90;;;;;;5051097;28;20043;-71
2022/05/01 00:23:08;;;;;;;46.72;31.42;;;9.20;99.90;;;;;;5051715;28;20053;-71
2022/05/01 00:25:35;;;;;;;50.78;32.80;;;9.20;99.90;;;;;;5051852;28;20068;-71
2022/05/01 00:28:01;;;;;;;47.22;33.35;;;9.20;99.90;;;;;;5051504;28;20025;-71
2022/05/01 00:30:27;;;;;;;50.25;33.55;;;9.10;99.90;;;;;;5051917;28;20040;-71
2022/05/01 00:38:27;;;;;;;54.08;33.95;;;9.10;99.90;;;;;;5032173;28;20039;-72
2022/05/01 00:40:54;;;;;;;53.55;32.92;;;9.10;99.90;;;;;;5050765;28;20494;-71
2022/05/01 00:43:20;;;;;;;50.00;34.05;;;9.10;99.90;;;;;;5051214;28;20485;-72
2022/05/01 00:45:45;;;;;;;46.03;32.22;;;9.10;99.90;;;;;;5050560;28;20041;-71
2022/05/01 00:48:11;;;;;;;50.47;32.47;;;9.10;99.90;;;;;;5051800;28;20029;-71
2022/05/01 00:50:36;;;;;;;50.65;32.88;;;9.20;99.90;;;;;;5051675;28;20040;-71
2022/05/01 00:53:05;;;;;;;54.88;34.67;;;9.10;99.90;;;;;;5050650;28;20505;-71
2022/05/01 00:55:32;;;;;;;47.30;31.08;;;9.10;99.90;;;;;;5051772;28;20171;-71
2022/05/01 00:57:58;;;;;;;46.50;30.65;;;9.10;99.90;;;;;;5050566;28;20029;-71
2022/05/01 01:00:24;;;;;;;52.83;32.85;;;9.10;99.90;;;;;;5052139;28;20032;-72
2022/05/01 01:02:50;;;;;;;45.08;29.38;;;9.00;99.90;;;;;;5051548;28;20100;-71
2022/05/01 01:05:16;;;;;;;49.63;31.77;;;9.00;99.90;;;;;;5051750;28;20104;-71
2022/05/01 01:07:42;;;;;;;47.03;33.13;;;9.00;99.90;;;;;;5054863;28;20385;-71
2022/05/01 01:10:09;;;;;;;52.50;32.75;;;9.10;99.90;;;;;;5054927;28;20098;-71
2022/05/01 01:13:07;;;;;;;54.33;35.63;;;9.10;99.90;;;;;;5055560;28;20367;-71
2022/05/01 01:15:29;;;;;;;51.70;33.92;;;9.10;99.90;;;;;;5055072;28;20037;-71
2022/05/01 01:17:55;;;;;;;53.35;34.50;;;9.10;99.90;;;;;;5054425;28;20029;-71
2022/05/01 01:20:26;;;;;;;60.13;34.55;;;9.10;99.90;;;;;;5055261;28;20033;-71
2022/05/01 01:22:54;;;;;;;57.58;35.78;;;9.10;99.90;;;;;;5054298;28;20104;-71
2022/05/01 01:25:29;;;;;;;54.92;35.38;;;9.00;99.90;;;;;;5055121;28;20033;-72
2022/05/01 01:27:59;;;;;;;53.70;34.15;;;9.00;99.90;;;;;;5054293;28;20032;-72
2022/05/01 01:33:10;;;;;;;56.97;35.03;;;9.00;99.90;;;;;;5055206;28;20477;-71
2022/05/01 01:35:38;;;;;;;57.25;34.28;;;9.00;99.90;;;;;;5054932;28;20390;-71
2022/05/01 01:38:04;;;;;;;50.58;32.17;;;9.00;99.90;;;;;;5054349;28;20621;-71
2022/05/01 01:40:54;;;;;;;52.20;34.15;;;9.00;99.90;;;;;;5055271;28;20083;-71
2022/05/01 01:43:25;;;;;;;53.13;33.85;;;9.10;99.90;;;;;;5054870;28;20104;-72
2022/05/01 01:45:51;;;;;;;54.20;34.53;;;9.10;99.90;;;;;;5054103;28;20435;-71
2022/05/01 01:48:20;;;;;;;59.28;34.65;;;9.10;99.90;;;;;;5054449;28;20021;-71
2022/05/01 01:50:56;;;;;;;52.67;32.13;;;9.20;99.90;;;;;;5054253;28;20120;-71
2022/05/01 01:53:22;;;;;;;51.75;33.90;;;9.20;99.90;;;;;;5054881;28;20108;-71
2022/05/01 01:55:47;;;;;;;48.83;32.78;;;9.10;99.90;;;;;;5053809;28;20107;-71
2022/05/01 01:58:13;;;;;;;48.63;31.25;;;9.10;99.90;;;;;;5054267;28;20037;-71
2022/05/01 02:00:38;;;;;;;46.78;30.92;;;9.10;99.90;;;;;;5054163;28;20049;-71
2022/05/01 02:03:05;;;;;;;54.88;33.90;;;9.10;99.90;;;;;;5052320;28;20021;-71
2022/05/01 02:05:33;;;;;;;52.90;34.08;;;9.10;99.90;;;;;;5053819;28;20063;-71
2022/05/01 02:07:59;;;;;;;53.67;33.40;;;9.10;99.90;;;;;;5053732;28;20025;-71
2022/05/01 02:10:25;;;;;;;50.85;32.95;;;9.20;99.90;;;;;;5054453;28;20049;-71
2022/05/01 02:12:51;;;;;;;49.38;34.15;;;9.10;99.90;;;;;;5053494;28;20378;-72
2022/05/01 02:15:17;;;;;;;49.20;32.25;;;9.10;99.90;;;;;;5054479;28;20043;-71
2022/05/01 02:17:45;;;;;;;53.60;33.30;;;9.00;99.90;;;;;;5052990;28;20041;-72
2022/05/01 02:20:11;;;;;;;51.53;32.75;;;9.00;99.90;;;;;;5054158;28;20052;-71
2022/05/01 02:22:40;;;;;;;55.28;33.17;;;9.00;99.90;;;;;;5053969;28;20496;-72
2022/05/01 02:25:07;;;;;;;48.75;32.13;;;9.00;99.90;;;;;;5053083;28;20039;-72
2022/05/01 02:27:37;;;;;;;54.10;31.13;;;9.00;99.90;;;;;;5054239;28;20041;-72
2022/05/01 02:30:04;;;;;;;51.35;30.13;;;9.00;99.90;;;;;;5052948;28;20026;-72
2022/05/01 02:32:30;;;;;;;49.38;31.00;;;9.00;99.90;;;;;;5053719;28;20068;-71
2022/05/01 02:34:55;;;;;;;50.78;32.80;;;9.00;99.90;;;;;;5053292;28;20029;-72
2022/05/01 02:37:21;;;;;;;51.08;33.72;;;9.00;99.90;;;;;;5054022;28;20037;-71
2022/05/01 02:39:46;;;;;;;52.47;32.70;;;9.00;99.90;;;;;;5053421;28;20457;-71
2022/05/01 02:42:13;;;;;;;57.17;34.15;;;9.00;99.90;;;;;;5053113;28;20510;-71
2022/05/01 02:44:39;;;;;;;46.05;31.42;;;9.00;99.90;;;;;;5053910;28;20540;-72
2022/05/01 02:47:05;;;;;;;51.25;32.97;;;8.90;99.90;;;;;;5053033;28;20037;-71
2022/05/01 02:49:31;;;;;;;51.15;31.88;;;8.80;99.90;;;;;;5053698;28;20025;-72
2022/05/01 02:51:57;;;;;;;54.80;31.90;;;8.80;99.90;;;;;;5052893;28;20359;-74
2022/05/01 02:54:22;;;;;;;51.47;30.92;;;8.70;99.90;;;;;;5053968;28;20048;-71
2022/05/01 02:56:49;;;;;;;48.72;31.40;;;8.70;99.90;;;;;;5053419;28;20028;-71
2022/05/01 02:59:20;;;;;;;52.92;33.13;;;8.60;99.90;;;;;;5054281;28;20029;-71
2022/05/01 03:01:45;;;;;;;47.63;31.65;;;8.50;99.90;;;;;;5053597;28;20069;-72
2022/05/01 03:04:11;;;;;;;52.38;31.08;;;8.60;99.90;;;;;;5053079;28;20435;-72
2022/05/01 03:06:37;;;;;;;57.67;32.22;;;8.60;99.90;;;;;;5053701;28;20065;-72
2022/05/01 03:09:03;;;;;;;51.72;31.33;;;8.50;99.90;;;;;;5052809;28;20506;-72
2022/05/01 03:11:29;;;;;;;47.70;31.55;;;8.50;99.90;;;;;;5053357;28;20056;-71
2022/05/01 03:13:55;;;;;;;47.15;31.48;;;8.50;99.90;;;;;;5052946;28;20056;-71
2022/05/01 03:16:20;;;;;;;52.60;32.40;;;8.50;99.90;;;;;;5053694;28;20025;-71
2022/05/01 03:24:17;;;;;;;52.97;32.75;;;8.60;99.90;;;;;;5052527;28;20484;-71
2022/05/01 03:26:42;;;;;;;55.15;33.40;;;8.60;99.90;;;;;;5053084;28;20102;-72
2022/05/01 03:29:09;;;;;;;53.35;32.35;;;8.60;99.90;;;;;;5052053;28;20431;-72
2022/05/01 03:31:37;;;;;;;52.22;33.03;;;8.60;99.90;;;;;;5052833;28;20374;-71
2022/05/01 03:34:04;;;;;;;57.50;34.90;;;8.60;99.90;;;;;;5052037;28;20017;-71
2022/05/01 03:36:30;;;;;;;54.53;32.00;;;8.70;99.90;;;;;;5052587;28;20065;-71
2022/05/01 03:38:56;;;;;;;55.22;33.33;;;8.70;99.90;;;;;;5052366;28;20120;-71
2022/05/01 03:41:22;;;;;;;55.88;33.53;;;8.70;99.90;;;;;;5052720;28;20036;-71
2022/05/01 03:43:47;;;;;;;57.05;35.50;;;8.70;99.90;;;;;;5052410;28;20024;-72
2022/05/01 03:46:13;;;;;;;57.05;35.45;;;8.70;99.90;;;;;;5052049;28;20029;-71
2022/05/01 03:48:39;;;;;;;59.33;35.33;;;8.70;99.90;;;;;;5052311;28;20458;-71
2022/05/01 03:51:05;;;;;;;65.22;35.95;;;8.70;99.90;;;;;;5051914;28;20072;-71
2022/05/01 03:53:30;;;;;;;58.92;36.70;;;8.80;99.90;;;;;;5052593;28;20029;-71
2022/05/01 03:55:56;;;;;;;62.15;37.10;;;8.80;99.90;;;;;;5051302;28;20051;-69
2022/05/01 03:58:22;;;;;;;65.18;35.75;;;8.80;99.90;;;;;;5052721;28;20036;-69
2022/05/01 04:00:48;;;;;;;59.67;34.42;;;8.90;99.90;;;;;;5052475;28;20451;-70
2022/05/01 04:03:18;;;;;;;58.60;34.78;;;8.80;99.90;;;;;;5051979;28;20025;-69
2022/05/01 04:05:44;;;;;;;58.05;34.38;;;8.70;99.90;;;;;;5052108;28;20037;-71
2022/05/01 04:08:10;;;;;;;57.90;33.83;;;8.70;99.90;;;;;;5051413;28;20039;-69
2022/05/01 04:10:41;;;;;;;56.80;33.70;;;8.70;99.90;;;;;;5052352;28;20029;-70
2022/05/01 04:13:07;;;;;;;57.75;33.63;;;8.70;99.90;;;;;;5051527;28;20033;-70
2022/05/01 04:15:33;;;;;;;54.95;32.75;;;8.70;99.90;;;;;;5051613;28;20115;-70
2022/05/01 04:17:59;;;;;;;53.28;33.13;;;8.70;99.90;;;;;;5051470;28;20446;-70
2022/05/01 04:20:25;;;;;;;53.88;32.38;;;8.70;99.90;;;;;;5052004;28;20108;-71
2022/05/01 04:22:51;;;;;;;51.83;31.67;;;8.70;99.90;;;;;;5048584;28;20029;-71
2022/05/01 04:25:22;;;;;;;53.10;31.92;;;8.70;99.90;;;;;;5048096;28;20470;-71
2022/05/01 04:27:51;;;;;;;49.95;31.85;;;8.60;99.90;;;;;;5051961;28;20031;-71
2022/05/01 04:30:18;;;;;;;50.45;32.00;;;8.60;99.90;;;;;;5050326;28;20378;-71
2022/05/01 04:33:07;;;;;;;48.65;30.58;;;8.60;99.90;;;;;;5051917;28;20170;-71
2022/05/01 04:35:37;;;;;;;48.03;30.80;;;8.60;99.90;;;;;;5051917;28;20029;-71
2022/05/01 04:38:08;;;;;;;45.42;29.95;;;8.60;99.90;;;;;;5051284;28;20029;-71
2022/05/01 04:40:47;;;;;;;43.35;29.67;;;8.60;99.90;;;;;;5042809;28;20084;-71
2022/05/01 04:43:18;;;;;;;55.28;32.42;;;8.60;99.90;;;;;;5041272;28;20499;-71
2022/05/01 04:45:48;;;;;;;51.80;31.88;;;8.70;99.90;;;;;;5041847;28;20033;-72
2022/05/01 04:48:16;;;;;;;46.35;30.02;;;8.70;99.90;;;;;;5039392;28;20175;-72
2022/05/01 04:50:42;;;;;;;50.95;30.90;;;8.70;99.90;;;;;;5040168;28;20106;-70
2022/05/01 04:53:09;;;;;;;50.60;29.77;;;8.70;99.90;;;;;;5040371;28;20072;-70
2022/05/01 04:55:37;;;;;;;50.75;31.80;;;8.80;99.90;;;;;;5041769;28;20609;-70
2022/05/01 04:58:03;;;;;;;43.90;28.98;;;8.80;99.90;;;;;;5039555;28;20134;-70
2022/05/01 05:00:30;;;;;;;46.50;30.77;;;8.80;99.90;;;;;;5041615;28;21393;-71
2022/05/01 05:02:56;;;;;;;45.13;30.45;;;8.70;99.90;;;;;;5038764;28;20386;-71
2022/05/01 05:05:24;;;;;;;50.97;31.92;;;8.80;99.90;;;;;;5040232;28;20100;-71
2022/05/01 05:07:49;;;;;;;53.10;34.35;;;8.80;99.90;;;;;;5041963;28;20496;-72
2022/05/01 05:10:16;;;;;;;49.63;32.20;;;8.90;99.90;;;;;;5038721;28;20046;-71
2022/05/01 05:12:44;;;;;;;52.50;33.13;;;9.00;99.90;;;;;;5040425;28;20021;-72
2022/05/01 05:15:15;;;;;;;44.35;30.48;;;8.90;99.90;;;;;;5040253;28;20374;-71
2022/05/01 05:17:42;;;;;;;50.67;32.45;;;8.90;99.90;;;;;;5040321;28;20036;-71
2022/05/01 05:20:11;;;;;;;46.22;32.55;;;8.80;99.90;;;;;;5031016;28;20109;-71
2022/05/01 05:22:36;;;;;;;52.42;33.85;;;8.80;99.90;;;;;;5031488;28;20026;-71
2022/05/01 05:25:04;;;;;;;46.20;31.40;;;8.80;99.90;;;;;;5039421;28;20043;-74
2022/05/01 05:27:30;;;;;;;49.65;33.88;;;8.80;99.90;;;;;;5051007;28;20033;-71
2022/05/01 05:29:56;;;;;;;53.00;33.33;;;8.80;99.90;;;;;;5049189;28;20051;-71
2022/05/01 05:32:23;;;;;;;55.13;33.33;;;8.90;99.90;;;;;;5038082;28;20022;-71
2022/05/01 05:34:49;;;;;;;52.78;31.98;;;8.80;99.90;;;;;;5041639;28;20112;-72
2022/05/01 05:37:17;;;;;;;49.55;31.17;;;9.00;99.90;;;;;;5039187;28;20079;-71
2022/05/01 05:39:43;;;;;;;47.42;30.48;;;9.00;99.90;;;;;;5037646;28;20079;-70
2022/05/01 05:42:09;;;;;;;48.47;31.88;;;9.00;99.90;;;;;;5038239;28;20463;-71
2022/05/01 05:44:34;;;;;;;46.70;31.15;;;9.00;99.90;;;;;;5041438;28;20022;-71
2022/05/01 05:47:00;;;;;;;45.22;30.40;;;9.00;99.90;;;;;;5040713;28;20478;-70
2022/05/01 05:49:26;;;;;;;47.35;31.05;;;9.00;99.90;;;;;;5038885;28;20525;-71
2022/05/01 05:51:52;;;;;;;46.80;30.20;;;9.00;99.90;;;;;;5041593;28;20029;-70
2022/05/01 05:54:18;;;;;;;49.53;31.13;;;9.10;99.90;;;;;;5042507;28;20025;-68
2022/05/01 05:56:43;;;;;;;44.95;31.15;;;9.10;99.90;;;;;;5044809;28;20030;-71
2022/05/01 05:59:09;;;;;;;45.28;30.20;;;9.20;99.90;;;;;;5041724;28;20028;-70
2022/05/01 06:01:35;;;;;;;45.65;30.45;;;9.20;99.90;;;;;;5041103;28;20052;-71
2022/05/01 06:04:01;;;;;;;44.25;29.25;;;9.10;99.90;;;;;;5041039;28;20030;-70
2022/05/01 06:06:27;;;;;;;43.80;30.45;;;9.10;99.90;;;;;;5047796;28;20047;-70
2022/05/01 06:08:52;;;;;;;46.55;32.05;;;9.10;99.90;;;;;;5045223;28;20049;-70
2022/05/01 06:11:18;;;;;;;40.75;28.50;;;9.10;99.90;;;;;;5053832;28;20079;-70
2022/05/01 06:13:44;;;;;;;45.45;29.15;;;9.00;99.90;;;;;;5051805;28;20025;-70
2022/05/01 06:16:10;;;;;;;50.22;31.40;;;9.10;99.90;;;;;;5044025;28;20039;-70
2022/05/01 06:18:36;;;;;;;40.17;28.95;;;9.20;99.90;;;;;;5042611;28;20033;-71
2022/05/01 06:21:01;;;;;;;45.25;30.15;;;9.20;99.90;;;;;;5046692;28;20036;-70
2022/05/01 06:23:27;;;;;;;43.50;28.25;;;9.20;99.90;;;;;;5042259;28;20025;-70
2022/05/01 06:25:53;;;;;;;42.78;29.63;;;9.30;99.90;;;;;;5047088;28;20116;-70
2022/05/01 06:28:20;;;;;;;38.45;24.67;;;9.40;99.90;;;;;;5043233;28;20033;-70
2022/05/01 06:30:47;;;;;;;39.40;28.05;;;9.40;99.90;;;;;;5045385;28;20024;-70
2022/05/01 06:33:15;;;;;;;37.58;27.25;;;9.50;99.90;;;;;;5042547;28;20459;-70
2022/05/01 06:35:42;;;;;;;40.13;27.70;;;9.60;99.90;;;;;;5039579;28;20028;-70
2022/05/01 06:38:08;;;;;;;41.22;27.55;;;9.70;99.90;;;;;;5052507;28;20381;-70
2022/05/01 06:40:35;;;;;;;37.55;27.10;;;9.80;99.90;;;;;;5043819;28;20025;-70
2022/05/01 06:43:01;;;;;;;40.50;28.33;;;9.90;99.90;;;;;;5041642;28;20454;-71
2022/05/01 06:45:26;;;;;;;38.40;27.02;;;10.00;99.90;;;;;;5041827;28;20025;-72
2022/05/01 06:47:52;;;;;;;34.25;25.00;;;10.10;99.90;;;;;;5044087;28;20090;-72
2022/05/01 06:50:18;;;;;;;38.35;26.35;;;10.10;99.90;;;;;;5040686;28;20159;-72
2022/05/01 06:52:44;;;;;;;39.60;27.13;;;10.20;99.90;;;;;;5041870;28;20068;-71
2022/05/01 06:55:09;;;;;;;40.22;27.40;;;10.40;99.90;;;;;;5042883;28;20386;-70
2022/05/01 06:57:35;;;;;;;38.58;24.80;;;10.50;99.90;;;;;;5052422;28;20115;-70
2022/05/01 07:00:01;;;;;;;35.17;23.63;;;10.50;99.90;;;;;;5054657;28;20029;-70
2022/05/01 07:02:26;;;;;;;36.60;26.70;;;10.50;99.90;;;;;;5050391;28;20646;-71
2022/05/01 07:04:52;;;;;;;37.13;26.80;;;10.60;99.90;;;;;;5048765;28;20105;-70
2022/05/01 07:07:18;;;;;;;32.38;24.05;;;10.70;99.90;;;;;;5044461;28;20057;-71
2022/05/01 07:09:44;;;;;;;33.78;24.85;;;10.80;99.90;;;;;;5037117;28;20073;-71
2022/05/01 07:12:11;;;;;;;34.53;22.67;;;10.80;99.90;;;;;;5036111;28;20022;-71
2022/05/01 07:14:39;;;;;;;36.08;24.80;;;10.90;99.90;;;;;;5040534;28;20049;-70
2022/05/01 07:17:05;;;;;;;33.05;24.52;;;10.90;99.90;;;;;;5048830;28;20087;-71
2022/05/01 07:19:32;;;;;;;30.83;22.13;;;11.00;99.90;;;;;;5044232;28;20049;-71
2022/05/01 07:21:57;;;;;;;30.75;21.30;;;11.10;99.90;;;;;;5043192;28;20079;-71
2022/05/01 07:24:23;;;;;;;29.15;20.58;;;11.10;99.90;;;;;;5041489;28;20023;-71
2022/05/01 07:26:49;;;;;;;31.13;23.08;;;11.10;99.90;;;;;;5042866;28;20033;-72
2022/05/01 07:29:14;;;;;;;32.90;23.58;;;11.30;99.90;;;;;;5040785;28;20429;-71
2022/05/01 07:31:42;;;;;;;31.35;22.30;;;11.30;99.90;;;;;;5043327;28;20020;-71
2022/05/01 07:34:09;;;;;;;31.48;23.52;;;11.30;99.90;;;;;;5034515;28;20025;-72
2022/05/01 07:36:34;;;;;;;31.05;21.40;;;11.40;99.90;;;;;;5045260;28;20436;-71
2022/05/01 07:39:00;;;;;;;31.33;22.95;;;11.40;99.90;;;;;;5051441;28;20082;-71
2022/05/01 07:41:27;;;;;;;30.40;21.67;;;11.40;99.90;;;;;;5050019;28;20032;-70
2022/05/01 07:43:55;;;;;;;31.83;23.42;;;11.40;99.90;;;;;;5043187;28;20029;-71
2022/05/01 07:46:21;;;;;;;28.77;21.92;;;11.40;99.90;;;;;;5041685;28;20478;-71
2022/05/01 07:48:47;;;;;;;31.30;23.02;;;11.50;99.90;;;;;;5040695;28;20068;-74
2022/05/01 07:51:14;;;;;;;30.02;22.40;;;11.60;99.90;;;;;;5039077;28;20095;-70
2022/05/01 07:53:40;;;;;;;30.38;21.88;;;11.60;99.90;;;;;;5045187;28;20064;-70
2022/05/01 07:56:05;;;;;;;29.40;21.70;;;11.60;99.90;;;;;;5051402;28;20065;-77
2022/05/01 07:58:31;;;;;;;29.58;21.52;;;11.60;99.90;;;;;;5052531;28;20028;-70
2022/05/01 08:00:59;;;;;;;30.77;21.92;;;11.70;99.90;;;;;;5052113;28;20036;-70
2022/05/01 08:06:10;;;;;;;29.33;21.98;;;12.00;99.90;;;;;;5051622;28;20080;-71
2022/05/01 08:08:36;;;;;;;28.45;21.33;;;12.10;99.90;;;;;;5046234;28;20037;-70
2022/05/01 08:11:04;;;;;;;28.08;20.52;;;12.20;99.90;;;;;;5040689;28;20393;-71
2022/05/01 08:13:30;;;;;;;26.50;20.75;;;12.30;99.90;;;;;;5042827;28;20037;-71
2022/05/01 08:15:55;;;;;;;24.25;19.60;;;12.30;99.90;;;;;;5038709;28;20125;-71
2022/05/01 08:21:07;;;;;;;26.90;19.70;;;12.50;99.90;;;;;;5038801;28;20044;-72
2022/05/01 08:23:33;;;;;;;24.15;19.48;;;12.70;99.90;;;;;;5042210;28;20055;-72
2022/05/01 08:26:03;;;;;;;22.83;16.77;;;12.70;99.90;;;;;;5048879;28;20525;-72
2022/05/01 08:28:36;;;;;;;30.20;19.90;;;12.80;99.90;;;;;;5051132;28;20029;-69
2022/05/01 08:31:03;;;;;;;28.67;20.77;;;12.80;99.90;;;;;;5050896;28;20539;-71
2022/05/01 08:33:29;;;;;;;27.23;20.73;;;12.80;99.90;;;;;;5051300;28;20029;-71
2022/05/01 08:35:54;;;;;;;28.20;19.80;;;12.90;99.90;;;;;;5050952;28;20397;-70
2022/05/01 08:38:20;;;;;;;25.10;19.17;;;13.10;99.90;;;;;;5050201;28;20039;-70
2022/05/01 08:40:48;;;;;;;28.42;21.58;;;13.00;99.90;;;;;;5051585;28;20025;-70
2022/05/01 08:43:22;;;;;;;25.85;20.95;;;13.20;99.90;;;;;;5050814;28;20032;-70
2022/05/01 08:45:54;;;;;;;27.15;20.13;;;13.30;99.90;;;;;;5051331;28;20021;-70
2022/05/01 08:48:26;;;;;;;26.48;18.45;;;13.30;99.90;;;;;;5050503;28;20114;-70
2022/05/01 08:50:53;;;;;;;28.58;19.48;;;13.40;99.90;;;;;;5051675;28;20025;-70
2022/05/01 08:53:22;;;;;;;20.92;17.00;;;13.50;99.90;;;;;;5050990;28;20021;-70
2022/05/01 08:55:50;;;;;;;24.10;18.50;;;13.50;99.90;;;;;;5049763;28;20377;-70
2022/05/01 08:58:16;;;;;;;28.30;19.13;;;13.70;99.90;;;;;;5051021;28;20044;-70
2022/05/01 09:00:43;;;;;;;24.08;19.02;;;13.80;99.90;;;;;;5050834;28;20040;-69
2022/05/01 09:03:09;;;;;;;28.52;19.95;;;13.80;99.90;;;;;;5050763;28;20059;-70
2022/05/01 09:05:34;;;;;;;23.65;18.50;;;13.80;99.90;;;;;;5051254;28;20052;-72
2022/05/01 09:08:00;;;;;;;24.13;18.70;;;13.70;99.90;;;;;;5051292;28;20029;-70
2022/05/01 09:10:27;;;;;;;22.15;16.90;;;13.70;99.90;;;;;;5050921;28;20549;-70
2022/05/01 09:12:55;;;;;;;21.42;17.63;;;13.70;99.90;;;;;;5051249;28;20060;-70
2022/05/01 09:15:27;;;;;;;23.33;18.13;;;13.80;99.90;;;;;;5050543;28;20036;-70
2022/05/01 09:18:08;;;;;;;21.77;18.25;;;13.80;99.90;;;;;;5051388;28;20521;-70
2022/05/01 09:20:36;;;;;;;22.45;17.52;;;13.80;99.90;;;;;;5051679;28;20037;-70
2022/05/01 09:23:02;;;;;;;20.88;16.48;;;13.80;99.90;;;;;;5051008;28;20032;-69
2022/05/01 09:25:29;;;;;;;26.83;17.65;;;13.90;99.90;;;;;;5050192;28;20104;-70
2022/05/01 09:27:57;;;;;;;22.13;17.40;;;14.00;99.90;;;;;;5053617;28;20029;-70
2022/05/01 09:30:31;;;;;;;22.17;16.17;;;14.10;99.90;;;;;;5054355;28;20068;-70
2022/05/01 09:32:57;;;;;;;18.05;14.32;;;14.30;99.90;;;;;;5054815;28;20086;-70
2022/05/01 09:35:23;;;;;;;19.13;13.38;;;14.40;99.90;;;;;;5054338;28;20032;-71
2022/05/01 09:37:49;;;;;;;16.73;12.77;;;14.40;99.90;;;;;;5054207;28;20044;-70
2022/05/01 09:40:30;;;;;;;20.42;12.90;;;14.40;99.90;;;;;;5054146;28;20044;-70
2022/05/01 09:42:56;;;;;;;20.83;13.68;;;14.50;99.90;;;;;;5053104;28;20462;-69
2022/05/01 09:45:30;;;;;;;19.90;14.57;;;14.40;99.90;;;;;;5053890;28;20025;-70
2022/05/01 09:47:56;;;;;;;17.23;13.75;;;14.40;99.90;;;;;;5055252;28;20506;-70
2022/05/01 09:50:39;;;;;;;18.00;14.43;;;14.40;99.90;;;;;;5053726;28;20024;-70
2022/05/01 09:53:05;;;;;;;18.60;14.00;;;14.60;99.90;;;;;;5054890;28;20139;-69
2022/05/01 09:55:31;;;;;;;16.77;13.48;;;14.70;99.90;;;;;;5053000;28;20044;-70
2022/05/01 09:58:11;;;;;;;18.85;13.30;;;14.80;99.90;;;;;;5054079;28;20118;-70
2022/05/01 10:00:39;;;;;;;16.98;12.73;;;15.00;99.30;;;;;;5054566;28;20394;-71
2022/05/01 10:03:22;;;;;;;17.75;13.85;;;15.10;99.60;;;;;;5054413;28;20029;-71
2022/05/01 10:05:49;;;;;;;17.58;13.77;;;15.20;99.40;;;;;;5054088;28;20025;-70
2022/05/01 10:08:18;;;;;;;18.02;13.95;;;15.30;98.80;;;;;;5053278;28;20033;-70
2022/05/01 10:10:46;;;;;;;17.73;14.00;;;15.50;98.40;;;;;;5053421;28;20082;-70
2022/05/01 10:13:13;;;;;;;17.42;13.75;;;15.70;97.30;;;;;;5053478;28;20108;-71
2022/05/01 10:15:39;;;;;;;18.33;13.73;;;15.70;96.40;;;;;;5036770;28;20033;-70
2022/05/01 10:18:06;;;;;;;18.63;13.73;;;15.70;96.70;;;;;;5053896;28;20390;-70
2022/05/01 10:20:36;;;;;;;17.48;13.55;;;15.50;96.40;;;;;;5053606;28;20099;-69
2022/05/01 10:23:03;;;;;;;15.60;12.60;;;15.30;96.50;;;;;;5053770;28;20105;-70
2022/05/01 10:25:32;;;;;;;19.45;14.85;;;15.10;97.00;;;;;;5053317;28;20650;-70
2022/05/01 10:28:28;;;;;;;20.07;13.57;;;15.10;98.20;;;;;;5053211;28;20512;-71
2022/05/01 10:34:23;;;;;;;14.85;12.10;;;14.80;97.20;;;;;;5041803;28;20068;-70
2022/05/01 10:36:58;;;;;;;17.48;12.63;;;14.60;97.20;;;;;;5045435;28;20064;-72
2022/05/01 10:39:28;;;;;;;14.77;12.38;;;14.70;96.80;;;;;;5052341;28;20059;-70
2022/05/01 10:41:54;;;;;;;14.27;11.40;;;15.10;97.00;;;;;;5053557;28;20386;-70
2022/05/01 10:44:30;;;;;;;18.13;12.18;;;15.50;96.60;;;;;;5052497;28;20029;-70
2022/05/01 10:47:16;;;;;;;16.98;12.57;;;15.90;95.00;;;;;;5053500;28;20039;-70
2022/05/01 10:49:46;;;;;;;17.25;12.95;;;16.20;93.60;;;;;;5054149;28;20032;-71
2022/05/01 10:52:13;;;;;;;;;;;16.40;93.10;;;;;;5053604;28;20099;-71
2022/05/01 10:54:39;;;;;;;14.27;11.25;;;16.30;93.00;;;;;;5053860;28;19912;-70
2022/05/01 10:57:10;;;;;;;16.20;11.35;;;16.20;92.60;;;;;;5053069;28;20029;-70
2022/05/01 10:59:43;;;;;;;15.68;11.20;;;16.30;92.70;;;;;;5052715;28;20532;-69
2022/05/01 11:02:32;;;;;;;15.45;10.18;;;16.50;92.30;;;;;;5053588;28;20025;-70
2022/05/01 11:04:59;;;;;;;14.85;11.23;;;16.70;92.10;;;;;;5053543;28;20036;-71
2022/05/01 11:07:26;;;;;;;18.30;12.38;;;16.80;90.40;;;;;;5052023;28;20036;-71
2022/05/01 11:09:56;;;;;;;16.98;13.05;;;16.80;90.40;;;;;;5053674;28;20057;-71
2022/05/01 11:12:25;;;;;;;13.70;11.10;;;16.60;90.00;;;;;;5054558;28;20025;-71
2022/05/01 11:14:55;;;;;;;16.40;11.05;;;16.40;90.80;;;;;;5053248;28;20025;-71
2022/05/01 11:17:47;;;;;;;13.63;9.68;;;16.40;90.90;;;;;;5051962;28;20036;-71
2022/05/01 11:20:19;;;;;;;13.63;10.43;;;16.40;90.20;;;;;;5052454;28;20484;-71
2022/05/01 11:22:48;;;;;;;13.70;11.05;;;16.50;89.70;;;;;;5053315;28;20103;-71
2022/05/01 11:25:39;;;;;;;15.10;11.98;;;16.40;90.10;;;;;;5052579;28;20390;-71
2022/05/01 11:28:06;;;;;;;11.98;10.02;;;16.50;88.60;;;;;;5052766;28;20107;-70
2022/05/01 11:30:31;;;;;;;11.98;9.63;;;16.30;90.00;;;;;;5051475;28;20112;-75
2022/05/01 11:33:11;;;;;;;14.55;9.13;;;16.30;90.40;;;;;;5052916;28;20497;-70
2022/05/01 11:36:00;;;;;;;15.20;11.60;;;16.40;90.40;;;;;;5052017;28;20056;-70
2022/05/01 11:38:51;;;;;;;11.38;9.48;;;16.50;89.00;;;;;;5052613;28;20052;-88
2022/05/01 11:41:41;;;;;;;12.75;10.20;;;16.60;88.50;;;;;;5050931;28;20037;-80
2022/05/01 11:44:20;;;;;;;14.57;10.60;;;16.70;87.60;;;;;;5052284;28;20112;-75
2022/05/01 11:46:47;;;;;;;13.80;10.48;;;17.10;86.30;;;;;;5052872;28;20025;-79
2022/05/01 11:49:13;;;;;;;16.52;13.00;;;17.50;86.10;;;;;;5052986;28;20025;-75
2022/05/01 11:51:39;;;;;;;12.23;10.93;;;17.60;83.00;;;;;;5050746;28;20078;-82
2022/05/01 11:54:07;;;;;;;12.85;11.18;;;17.60;84.80;;;;;;5052328;28;20036;-78
2022/05/01 12:04:46;;;;;;;16.38;13.38;;;17.40;83.10;;;;;;5052261;28;20163;-79
2022/05/01 12:07:16;;;;;;;18.55;13.25;;;17.20;85.30;;;;;;5050807;28;20512;-71
2022/05/01 12:09:44;;;;;;;;;;;16.90;85.00;;;;;;5052388;28;20136;-73
2022/05/01 12:12:12;;;;;;;18.02;13.20;;;16.70;87.70;;;;;;5052088;28;20303;-75
2022/05/01 12:14:39;;;;;;;15.57;11.82;;;16.50;85.40;;;;;;5051518;28;20028;-74
2022/05/01 12:17:09;;;;;;;17.45;13.30;;;16.40;86.60;;;;;;5052289;28;20433;-75
2022/05/01 12:19:37;;;;;;;18.13;13.10;;;16.30;87.40;;;;;;5051259;28;20143;-78
2022/05/01 12:22:05;;;;;;;14.20;10.75;;;16.20;88.20;;;;;;5051003;28;20415;-76
2022/05/01 12:24:30;;;;;;;21.40;12.73;;;16.20;88.60;;;;;;5051216;28;20032;-76
2022/05/01 12:26:56;;;;;;;15.15;11.73;;;16.20;88.30;;;;;;5051999;28;20033;-78
2022/05/01 12:29:23;;;;;;;16.90;12.55;;;16.20;88.90;;;;;;5050976;28;20021;-74
2022/05/01 12:32:00;;;;;;;19.23;12.98;;;16.40;88.50;;;;;;5043300;28;20087;-73
2022/05/01 12:34:28;;;;;;;15.32;12.43;;;16.50;86.00;;;;;;5041252;28;20036;-74
2022/05/01 12:36:56;;;;;;;16.33;12.10;;;16.60;85.80;;;;;;5051784;28;20116;-74
2022/05/01 12:39:24;;;;;;;14.82;11.80;;;16.60;86.00;;;;;;5051137;28;20029;-68
2022/05/01 12:45:13;;;;;;;13.57;11.35;;;17.30;85.30;;;;;;5051832;28;20032;-69
2022/05/01 12:47:44;;;;;;;22.20;12.23;;;17.80;82.30;;;;;;5051006;28;20032;-71
2022/05/01 12:50:19;;;;;;;12.40;9.98;;;;;;;;;;5051444;28;20067;-71
2022/05/01 12:52:50;;;;;;;13.70;9.98;;;18.80;77.20;;;;;;5051132;28;20025;-71
2022/05/01 12:55:21;;;;;;;14.68;11.65;;;18.90;77.50;;;;;;5047543;28;20513;-71
2022/05/01 12:57:53;;;;;;;14.50;10.75;;;;;;;;;;5040783;28;20474;-72
2022/05/01 13:00:45;;;;;;;14.32;11.27;;;20.40;97.10;;;;;;5039695;28;20074;-71
2022/05/01 13:03:15;;;;;;;13.57;11.18;;;;;;;;;;5044249;28;20025;-70
2022/05/01 13:05:43;;;;;;;13.35;10.65;;;;;;;;;;5044100;28;20585;-70
2022/05/01 13:08:19;;;;;;;13.68;10.82;;;;;;;;;;5042673;28;20025;-70
2022/05/01 13:11:05;;;;;;;11.70;10.13;;;;;;;;;;5045220;28;20041;-70
2022/05/01 13:13:42;;;;;;;12.68;8.80;;;;;;;;;;5042926;28;20021;-70
2022/05/01 13:16:10;;;;;;;9.07;7.68;;;;;;;;;;5043093;28;20053;-71